createdAt,value
2022-10-09T00:00:22.694Z,7.80
2022-10-09T00:02:50.624Z,7.80
2022-10-09T00:05:18.868Z,7.90
2022-10-09T00:07:46.814Z,8.00
2022-10-09T00:10:14.675Z,8.10
2022-10-09T00:12:43.082Z,8.10
2022-10-09T00:15:11.167Z,8.10
2022-10-09T00:17:39.705Z,7.80
2022-10-09T00:20:07.595Z,7.70
2022-10-09T00:22:35.210Z,7.60
2022-10-09T00:25:04.610Z,7.50
2022-10-09T00:27:38.954Z,7.40
2022-10-09T00:30:07.223Z,7.40
2022-10-09T00:32:35.044Z,7.40
2022-10-09T00:35:02.766Z,7.40
2022-10-09T00:37:31.423Z,7.40
2022-10-09T00:39:59.221Z,7.20
2022-10-09T00:42:26.906Z,7.20
2022-10-09T00:44:57.927Z,7.20
2022-10-09T00:47:46.618Z,7.20
2022-10-09T00:50:20.092Z,7.20
2022-10-09T00:52:55.359Z,7.30
2022-10-09T00:55:23.913Z,7.40
2022-10-09T00:57:51.900Z,7.40
2022-10-09T01:00:19.781Z,7.40
2022-10-09T01:02:47.513Z,7.50
2022-10-09T01:05:15.252Z,7.40
2022-10-09T01:08:09.417Z,7.40
2022-10-09T01:10:39.653Z,7.30
2022-10-09T01:13:25.909Z,7.30
2022-10-09T01:15:59.002Z,7.20
2022-10-09T01:18:38.230Z,7.10
2022-10-09T01:21:15.960Z,7.10
2022-10-09T01:23:52.573Z,7.20
2022-10-09T01:26:32.806Z,7.20
2022-10-09T01:29:09.611Z,7.10
2022-10-09T01:31:42.376Z,6.90
2022-10-09T01:34:12.206Z,6.90
2022-10-09T01:36:40.308Z,6.90
2022-10-09T01:39:09.528Z,6.90
2022-10-09T01:41:37.774Z,6.90
2022-10-09T01:44:14.962Z,6.80
2022-10-09T01:46:42.772Z,6.70
2022-10-09T01:49:25.970Z,6.60
2022-10-09T01:52:00.466Z,6.70
2022-10-09T01:54:39.615Z,6.60
2022-10-09T01:57:08.821Z,6.60
2022-10-09T01:59:42.672Z,6.60
2022-10-09T02:02:43.211Z,6.70
2022-10-09T02:05:13.113Z,6.70
2022-10-09T02:07:41.168Z,6.70
2022-10-09T02:10:09.870Z,6.60
2022-10-09T02:12:40.582Z,6.60
2022-10-09T02:15:09.129Z,6.60
2022-10-09T02:17:39.693Z,6.50
2022-10-09T02:20:10.761Z,6.50
2022-10-09T02:22:38.204Z,6.50
2022-10-09T02:25:09.314Z,6.50
2022-10-09T02:27:37.303Z,6.60
2022-10-09T02:30:07.473Z,6.60
2022-10-09T02:32:41.618Z,6.60
2022-10-09T02:35:09.328Z,6.70
2022-10-09T02:37:37.165Z,6.60
2022-10-09T02:40:10.433Z,6.60
2022-10-09T02:42:38.988Z,6.60
2022-10-09T02:45:07.283Z,6.60
2022-10-09T02:47:35.108Z,6.50
2022-10-09T02:50:03.098Z,6.40
2022-10-09T02:52:30.604Z,6.30
2022-10-09T02:54:58.674Z,6.20
2022-10-09T02:57:26.112Z,6.10
2022-10-09T02:59:53.558Z,6.10
2022-10-09T03:02:21.219Z,6.10
2022-10-09T03:04:49.699Z,6.10
2022-10-09T03:07:17.314Z,6.10
2022-10-09T03:09:46.364Z,6.00
2022-10-09T03:12:21.156Z,6.00
2022-10-09T03:14:48.969Z,6.00
2022-10-09T03:17:16.859Z,6.10
2022-10-09T03:19:44.664Z,6.00
2022-10-09T03:22:12.108Z,6.00
2022-10-09T03:24:39.837Z,6.00
2022-10-09T03:27:07.660Z,6.00
2022-10-09T03:29:35.363Z,5.90
2022-10-09T03:32:03.116Z,6.00
2022-10-09T03:34:30.570Z,6.00
2022-10-09T03:36:58.237Z,6.00
2022-10-09T03:39:25.772Z,6.00
2022-10-09T03:41:53.378Z,6.00
2022-10-09T03:44:21.289Z,5.90
2022-10-09T03:46:49.366Z,6.00
2022-10-09T03:49:17.032Z,6.00
2022-10-09T03:51:44.985Z,6.00
2022-10-09T03:54:13.217Z,6.00
2022-10-09T03:56:40.899Z,6.00
2022-10-09T03:59:09.695Z,6.00
2022-10-09T04:01:41.281Z,6.10
2022-10-09T04:04:08.773Z,6.00
2022-10-09T04:06:36.519Z,6.00
2022-10-09T04:09:04.175Z,5.90
2022-10-09T04:11:31.728Z,6.00
2022-10-09T04:14:03.427Z,5.90
2022-10-09T04:16:31.432Z,6.00
2022-10-09T04:18:59.481Z,6.00
2022-10-09T04:21:27.225Z,6.00
2022-10-09T04:23:55.622Z,6.00
2022-10-09T04:26:23.094Z,5.90
2022-10-09T04:28:50.800Z,6.00
2022-10-09T04:31:18.485Z,6.00
2022-10-09T04:33:46.550Z,6.00
2022-10-09T04:36:14.003Z,6.00
2022-10-09T04:38:41.924Z,6.00
2022-10-09T04:41:10.327Z,5.90
2022-10-09T04:43:38.127Z,5.80
2022-10-09T04:46:10.981Z,5.70
2022-10-09T04:48:42.878Z,5.70
2022-10-09T04:51:11.359Z,5.70
2022-10-09T04:53:39.671Z,5.70
2022-10-09T04:56:13.024Z,5.70
2022-10-09T04:58:41.284Z,5.70
2022-10-09T05:01:08.842Z,5.70
2022-10-09T05:03:36.651Z,5.60
2022-10-09T05:06:05.248Z,5.60
2022-10-09T05:08:33.367Z,5.60
2022-10-09T05:11:04.757Z,5.60
2022-10-09T05:13:39.656Z,5.60
2022-10-09T05:16:17.151Z,5.60
2022-10-09T05:18:46.551Z,5.60
2022-10-09T05:21:14.965Z,5.60
2022-10-09T05:23:42.627Z,5.60
2022-10-09T05:26:15.046Z,5.60
2022-10-09T05:28:43.758Z,5.60
2022-10-09T05:31:19.965Z,5.50
2022-10-09T05:33:49.589Z,5.40
2022-10-09T05:36:17.931Z,5.40
2022-10-09T05:38:45.522Z,5.40
2022-10-09T05:41:15.219Z,5.40
2022-10-09T05:43:43.783Z,5.40
2022-10-09T05:46:16.289Z,5.30
2022-10-09T05:48:52.826Z,5.20
2022-10-09T05:51:22.520Z,5.20
2022-10-09T05:53:51.049Z,5.20
2022-10-09T05:56:38.350Z,5.20
2022-10-09T05:59:06.951Z,5.20
2022-10-09T06:01:36.510Z,5.30
2022-10-09T06:04:04.793Z,5.30
2022-10-09T06:06:33.256Z,5.40
2022-10-09T06:09:08.702Z,5.40
2022-10-09T06:11:41.089Z,5.50
2022-10-09T06:14:09.686Z,5.60
2022-10-09T06:16:39.018Z,5.80
2022-10-09T06:19:07.405Z,5.90
2022-10-09T06:21:35.347Z,6.00
2022-10-09T06:24:03.682Z,7.00
2022-10-09T06:26:31.426Z,7.70
2022-10-09T06:28:59.857Z,8.30
2022-10-09T06:31:29.354Z,8.70
2022-10-09T06:33:58.254Z,9.30
2022-10-09T06:36:26.997Z,9.70
2022-10-09T06:38:54.949Z,10.10
2022-10-09T06:41:24.418Z,10.30
2022-10-09T06:43:59.801Z,10.60
2022-10-09T06:46:30.862Z,10.90
2022-10-09T06:48:59.273Z,11.50
2022-10-09T06:51:30.259Z,11.80
2022-10-09T06:53:59.342Z,12.30
2022-10-09T06:56:27.843Z,12.90
2022-10-09T06:58:55.601Z,13.00
2022-10-09T07:01:24.821Z,13.60
2022-10-09T07:03:56.294Z,14.20
2022-10-09T07:06:25.061Z,13.90
2022-10-09T07:08:54.037Z,14.40
2022-10-09T07:11:23.182Z,15.30
2022-10-09T07:13:53.261Z,15.50
2022-10-09T07:16:23.395Z,15.50
2022-10-09T07:18:51.037Z,15.30
2022-10-09T07:21:19.678Z,16.20
2022-10-09T07:23:47.911Z,16.30
2022-10-09T07:26:21.890Z,16.10
2022-10-09T07:28:50.437Z,15.70
2022-10-09T07:31:23.218Z,16.30
2022-10-09T07:33:51.670Z,17.00
2022-10-09T07:36:19.978Z,17.80
2022-10-09T07:38:55.275Z,19.20
2022-10-09T07:41:23.589Z,19.20
2022-10-09T07:43:51.490Z,19.50
2022-10-09T07:46:20.229Z,19.50
2022-10-09T07:48:48.637Z,19.20
2022-10-09T07:51:20.924Z,19.40
2022-10-09T07:53:49.611Z,19.80
2022-10-09T07:56:18.466Z,20.00
2022-10-09T07:59:00.459Z,19.80
2022-10-09T08:01:28.737Z,20.00
2022-10-09T08:03:56.755Z,21.30
2022-10-09T08:06:24.406Z,21.70
2022-10-09T08:08:53.023Z,22.30
2022-10-09T08:11:22.096Z,22.60
2022-10-09T08:13:52.286Z,22.30
2022-10-09T08:16:20.816Z,22.20
2022-10-09T08:18:49.303Z,22.90
2022-10-09T08:21:18.228Z,23.70
2022-10-09T08:23:46.051Z,23.60
2022-10-09T08:26:20.637Z,22.30
2022-10-09T08:29:08.557Z,21.80
2022-10-09T08:31:36.168Z,24.30
2022-10-09T08:34:03.902Z,25.70
2022-10-09T08:36:32.559Z,26.00
2022-10-09T08:39:02.410Z,25.20
2022-10-09T08:41:33.261Z,24.50
2022-10-09T08:44:20.592Z,23.90
2022-10-09T08:47:07.275Z,24.40
2022-10-09T08:49:54.883Z,22.50
2022-10-09T08:52:22.719Z,21.30
2022-10-09T08:54:52.939Z,19.50
2022-10-09T08:57:21.444Z,19.40
2022-10-09T08:59:49.382Z,19.20
2022-10-09T09:02:50.528Z,19.60
2022-10-09T09:05:21.675Z,20.10
2022-10-09T09:07:55.738Z,21.50
2022-10-09T09:10:29.511Z,21.30
2022-10-09T09:13:00.773Z,19.70
2022-10-09T09:15:36.318Z,18.60
2022-10-09T09:18:10.140Z,18.20
2022-10-09T09:21:00.453Z,18.10
2022-10-09T09:23:30.056Z,18.30
2022-10-09T09:25:59.779Z,18.50
2022-10-09T09:28:33.727Z,18.30
2022-10-09T09:31:21.994Z,19.10
2022-10-09T09:34:09.679Z,18.80
2022-10-09T09:37:02.598Z,18.40
2022-10-09T09:40:30.882Z,18.50
2022-10-09T09:42:21.087Z,18.10
2022-10-09T09:44:55.126Z,17.60
2022-10-09T09:47:33.827Z,17.60
2022-10-09T09:50:23.444Z,17.70
2022-10-09T09:53:01.771Z,18.20
2022-10-09T09:55:31.241Z,17.90
2022-10-09T09:58:01.932Z,17.70
2022-10-09T10:00:35.712Z,17.70
2022-10-09T10:03:03.747Z,17.50
2022-10-09T10:05:35.619Z,17.40
2022-10-09T10:08:22.995Z,17.20
2022-10-09T10:10:53.157Z,17.50
2022-10-09T10:13:44.895Z,17.60
2022-10-09T10:16:20.793Z,17.70
2022-10-09T10:18:48.801Z,18.20
2022-10-09T10:21:17.800Z,18.20
2022-10-09T10:24:03.514Z,17.70
2022-10-09T10:26:51.967Z,18.00
2022-10-09T10:29:21.869Z,18.10
2022-10-09T10:31:49.274Z,17.50
2022-10-09T10:34:26.198Z,17.60
2022-10-09T10:37:11.275Z,17.80
2022-10-09T10:39:45.594Z,17.80
2022-10-09T10:42:34.636Z,17.90
2022-10-09T10:45:22.732Z,17.90
2022-10-09T10:47:52.795Z,17.80
2022-10-09T10:50:21.498Z,17.90
2022-10-09T10:52:51.990Z,17.80
2022-10-09T10:55:26.198Z,17.60
2022-10-09T10:58:13.690Z,17.60
2022-10-09T11:00:43.656Z,18.00
2022-10-09T11:03:14.251Z,18.20
2022-10-09T11:06:03.089Z,17.70
2022-10-09T11:08:58.618Z,17.60
2022-10-09T11:11:54.611Z,17.70
2022-10-09T11:14:28.645Z,18.10
2022-10-09T11:16:57.218Z,17.90
2022-10-09T11:19:24.740Z,17.70
2022-10-09T11:21:52.654Z,17.90
2022-10-09T11:24:39.291Z,17.80
2022-10-09T11:27:19.263Z,17.50
2022-10-09T11:29:53.024Z,18.10
2022-10-09T11:32:23.671Z,17.90
2022-10-09T11:35:01.719Z,17.80
2022-10-09T11:37:35.085Z,17.70
2022-10-09T11:40:22.449Z,17.70
2022-10-09T11:43:02.468Z,17.80
2022-10-09T11:45:36.356Z,17.90
2022-10-09T11:48:16.460Z,18.00
2022-10-09T11:51:10.989Z,17.90
2022-10-09T11:53:40.212Z,18.00
2022-10-09T11:56:19.197Z,18.30
2022-10-09T11:59:06.796Z,18.00
2022-10-09T12:01:37.139Z,18.50
2022-10-09T12:04:37.372Z,18.20
2022-10-09T12:07:12.642Z,18.30
2022-10-09T12:09:44.319Z,18.40
2022-10-09T12:12:18.480Z,18.50
2022-10-09T12:14:47.054Z,18.40
2022-10-09T12:17:22.477Z,18.60
2022-10-09T12:20:00.867Z,18.20
2022-10-09T12:23:07.267Z,18.00
2022-10-09T12:25:40.912Z,18.30
2022-10-09T12:28:16.986Z,18.00
2022-10-09T12:30:47.877Z,17.70
2022-10-09T12:33:35.233Z,17.90
2022-10-09T12:36:05.064Z,18.00
2022-10-09T12:38:32.850Z,18.20
2022-10-09T12:41:02.885Z,18.40
2022-10-09T12:43:31.667Z,18.60
2022-10-09T12:45:59.982Z,18.20
2022-10-09T12:48:29.414Z,17.70
2022-10-09T12:50:57.503Z,18.20
2022-10-09T12:53:26.711Z,18.60
2022-10-09T12:56:03.466Z,18.40
2022-10-09T12:58:32.159Z,18.30
2022-10-09T13:01:07.305Z,19.20
2022-10-09T13:03:37.015Z,19.20
2022-10-09T13:06:13.143Z,18.70
2022-10-09T13:09:07.573Z,18.60
2022-10-09T13:11:42.427Z,18.50
2022-10-09T13:14:46.452Z,18.60
2022-10-09T13:17:37.042Z,18.60
2022-10-09T13:20:23.870Z,18.10
2022-10-09T13:22:56.268Z,17.80
2022-10-09T13:25:25.442Z,18.10
2022-10-09T13:27:53.236Z,18.20
2022-10-09T13:30:20.903Z,18.10
2022-10-09T13:32:50.404Z,18.20
2022-10-09T13:35:18.355Z,18.00
2022-10-09T13:37:46.021Z,18.20
2022-10-09T13:40:15.511Z,18.60
2022-10-09T13:42:43.372Z,18.40
2022-10-09T13:45:11.249Z,18.70
2022-10-09T13:47:38.944Z,18.40
2022-10-09T13:50:07.156Z,18.90
2022-10-09T13:52:35.579Z,19.70
2022-10-09T13:55:03.175Z,19.40
2022-10-09T13:57:30.889Z,19.10
2022-10-09T13:59:59.032Z,18.50
2022-10-09T14:02:26.648Z,18.40
2022-10-09T14:04:54.847Z,18.40
2022-10-09T14:07:22.665Z,18.00
2022-10-09T14:09:50.301Z,18.30
2022-10-09T14:12:17.801Z,18.60
2022-10-09T14:14:45.803Z,18.30
2022-10-09T14:17:13.473Z,18.20
2022-10-09T14:19:41.223Z,18.20
2022-10-09T14:22:09.222Z,18.60
2022-10-09T14:24:47.348Z,18.20
2022-10-09T14:27:15.360Z,18.50
2022-10-09T14:29:43.115Z,18.30
2022-10-09T14:32:10.736Z,18.10
2022-10-09T14:34:38.851Z,18.20
2022-10-09T14:37:18.540Z,18.50
2022-10-09T14:39:52.649Z,18.30
2022-10-09T14:42:20.334Z,18.10
2022-10-09T14:44:47.989Z,18.20
2022-10-09T14:47:15.977Z,18.20
2022-10-09T14:49:48.516Z,18.20
2022-10-09T14:52:16.149Z,18.00
2022-10-09T14:54:44.068Z,17.80
2022-10-09T14:57:11.988Z,17.80
2022-10-09T14:59:39.508Z,17.70
2022-10-09T15:02:07.518Z,17.50
2022-10-09T15:04:35.111Z,17.50
2022-10-09T15:07:05.985Z,17.70
2022-10-09T15:09:33.903Z,17.80
2022-10-09T15:12:01.489Z,17.60
2022-10-09T15:14:29.177Z,17.80
2022-10-09T15:16:56.874Z,17.40
2022-10-09T15:19:24.583Z,17.20
2022-10-09T15:21:52.302Z,17.20
2022-10-09T15:24:20.182Z,17.20
2022-10-09T15:26:47.925Z,17.10
2022-10-09T15:29:15.372Z,16.80
2022-10-09T15:31:42.921Z,16.70
2022-10-09T15:34:14.439Z,16.80
2022-10-09T15:36:46.356Z,16.70
2022-10-09T15:39:14.841Z,16.70
2022-10-09T15:41:43.263Z,16.70
2022-10-09T15:44:15.740Z,16.70
2022-10-09T15:46:43.526Z,16.70
2022-10-09T15:49:11.634Z,16.50
2022-10-09T15:51:42.806Z,16.50
2022-10-09T15:54:17.289Z,16.50
2022-10-09T15:56:47.644Z,16.50
2022-10-09T15:59:17.034Z,16.40
2022-10-09T16:01:44.688Z,16.40
2022-10-09T16:04:12.364Z,16.50
2022-10-09T16:06:41.225Z,16.30
2022-10-09T16:09:08.931Z,16.10
2022-10-09T16:11:36.686Z,16.00
2022-10-09T16:14:05.329Z,15.70
2022-10-09T16:16:33.211Z,15.60
2022-10-09T16:19:02.541Z,15.50
2022-10-09T16:21:30.044Z,15.40
2022-10-09T16:23:59.250Z,15.20
2022-10-09T16:26:28.744Z,15.10
2022-10-09T16:28:57.128Z,15.00
2022-10-09T16:31:26.628Z,15.10
2022-10-09T16:33:54.395Z,14.90
2022-10-09T16:36:22.896Z,14.90
2022-10-09T16:38:50.681Z,14.90
2022-10-09T16:41:20.021Z,14.90
2022-10-09T16:43:49.426Z,14.90
2022-10-09T16:46:17.235Z,14.80
2022-10-09T16:48:45.475Z,14.70
2022-10-09T16:51:15.846Z,14.60
2022-10-09T16:53:43.814Z,14.50
2022-10-09T16:56:15.469Z,14.50
2022-10-09T16:58:43.576Z,14.30
2022-10-09T17:01:11.502Z,14.10
2022-10-09T17:03:42.947Z,13.90
2022-10-09T17:06:12.753Z,13.90
2022-10-09T17:08:40.744Z,13.70
2022-10-09T17:11:09.964Z,13.50
2022-10-09T17:13:37.901Z,13.40
2022-10-09T17:16:08.228Z,13.30
2022-10-09T17:18:36.813Z,13.20
2022-10-09T17:21:05.628Z,13.20
2022-10-09T17:23:33.520Z,13.10
2022-10-09T17:26:07.135Z,12.90
2022-10-09T17:28:35.438Z,12.80
2022-10-09T17:31:07.992Z,12.70
2022-10-09T17:33:39.454Z,12.50
2022-10-09T17:36:08.238Z,12.30
2022-10-09T17:38:36.253Z,12.10
2022-10-09T17:41:15.044Z,11.90
2022-10-09T17:43:53.989Z,11.80
2022-10-09T17:46:22.157Z,11.70
2022-10-09T17:48:53.389Z,11.60
2022-10-09T17:51:22.476Z,11.50
2022-10-09T17:53:50.521Z,11.40
2022-10-09T17:56:18.824Z,11.30
2022-10-09T17:58:48.498Z,11.30
2022-10-09T18:01:17.133Z,11.20
2022-10-09T18:03:44.776Z,11.10
2022-10-09T18:06:17.450Z,11.00
2022-10-09T18:08:45.876Z,10.90
2022-10-09T18:11:14.828Z,10.80
2022-10-09T18:13:43.137Z,10.70
2022-10-09T18:16:12.928Z,10.70
2022-10-09T18:18:44.304Z,10.80
2022-10-09T18:21:13.408Z,10.80
2022-10-09T18:23:41.299Z,10.60
2022-10-09T18:26:16.495Z,10.70
2022-10-09T18:28:47.451Z,10.80
2022-10-09T18:31:18.506Z,10.80
2022-10-09T18:33:45.969Z,10.70
2022-10-09T18:36:18.411Z,10.70
2022-10-09T18:38:50.316Z,10.60
2022-10-09T18:41:18.607Z,10.60
2022-10-09T18:43:46.942Z,10.60
2022-10-09T18:46:15.396Z,10.50
2022-10-09T18:48:44.547Z,10.50
2022-10-09T18:51:16.569Z,10.60
2022-10-09T18:53:47.212Z,10.40
2022-10-09T18:56:16.471Z,10.20
2022-10-09T18:58:44.019Z,10.10
2022-10-09T19:01:11.923Z,10.10
2022-10-09T19:03:45.904Z,10.10
2022-10-09T19:06:17.287Z,10.10
2022-10-09T19:08:45.335Z,10.00
2022-10-09T19:11:14.590Z,9.90
2022-10-09T19:13:42.503Z,9.90
2022-10-09T19:16:10.156Z,9.90
2022-10-09T19:18:38.143Z,9.70
2022-10-09T19:21:05.921Z,9.70
2022-10-09T19:23:33.741Z,9.50
2022-10-09T19:26:01.279Z,9.40
2022-10-09T19:28:37.834Z,9.40
2022-10-09T19:31:06.658Z,9.30
2022-10-09T19:33:34.991Z,9.30
2022-10-09T19:36:03.937Z,9.20
2022-10-09T19:38:32.051Z,9.20
2022-10-09T19:41:04.340Z,9.10
2022-10-09T19:43:32.698Z,9.20
2022-10-09T19:46:01.300Z,9.10
2022-10-09T19:48:29.539Z,9.20
2022-10-09T19:50:57.069Z,9.10
2022-10-09T19:53:24.602Z,9.10
2022-10-09T19:55:52.120Z,9.10
2022-10-09T19:58:19.804Z,9.10
2022-10-09T20:00:47.709Z,9.10
2022-10-09T20:03:16.996Z,9.20
2022-10-09T20:05:44.785Z,9.30
2022-10-09T20:08:13.053Z,9.30
2022-10-09T20:10:41.648Z,9.30
2022-10-09T20:13:09.808Z,9.20
2022-10-09T20:15:41.298Z,9.30
2022-10-09T20:18:09.126Z,9.30
2022-10-09T20:20:37.048Z,9.20
2022-10-09T20:23:05.124Z,9.30
2022-10-09T20:25:32.827Z,9.30
2022-10-09T20:28:00.967Z,9.30
2022-10-09T20:30:28.820Z,9.30
2022-10-09T20:32:59.124Z,9.30
2022-10-09T20:35:27.277Z,9.30
2022-10-09T20:37:54.756Z,9.30
2022-10-09T20:40:22.626Z,9.30
2022-10-09T20:42:50.621Z,9.40
2022-10-09T20:45:18.426Z,9.40
2022-10-09T20:47:45.845Z,9.40
2022-10-09T20:50:13.601Z,9.40
2022-10-09T20:52:41.114Z,9.40
2022-10-09T20:55:09.299Z,9.50
2022-10-09T20:57:36.817Z,9.50
2022-10-09T21:00:04.989Z,9.50
2022-10-09T21:02:33.428Z,9.50
2022-10-09T21:05:01.430Z,9.60
2022-10-09T21:07:33.671Z,9.60
2022-10-09T21:10:01.189Z,9.60
2022-10-09T21:12:35.372Z,9.60
2022-10-09T21:15:03.840Z,9.60
2022-10-09T21:17:32.273Z,9.60
2022-10-09T21:20:00.719Z,9.60
2022-10-09T21:22:28.305Z,9.60
2022-10-09T21:24:55.901Z,9.60
2022-10-09T21:27:23.468Z,9.60
2022-10-09T21:29:51.699Z,9.60
2022-10-09T21:32:23.810Z,9.60
2022-10-09T21:34:52.451Z,9.70
2022-10-09T21:37:23.894Z,9.70
2022-10-09T21:39:51.831Z,9.60
2022-10-09T21:42:19.843Z,9.60
2022-10-09T21:44:47.724Z,9.60
2022-10-09T21:47:19.246Z,9.60
2022-10-09T21:49:47.212Z,9.60
2022-10-09T21:52:14.737Z,9.60
2022-10-09T21:54:42.347Z,9.60
2022-10-09T21:57:10.135Z,9.60
2022-10-09T21:59:37.761Z,9.70
2022-10-09T22:02:06.898Z,9.70
2022-10-09T22:04:34.628Z,9.70
2022-10-09T22:07:02.584Z,9.80
2022-10-09T22:09:30.324Z,9.80
2022-10-09T22:11:58.105Z,9.90
2022-10-09T22:14:27.608Z,9.90
2022-10-09T22:16:56.872Z,9.90
2022-10-09T22:19:24.328Z,10.10
2022-10-09T22:21:52.038Z,10.10
2022-10-09T22:24:19.734Z,10.10
2022-10-09T22:26:47.380Z,10.10
2022-10-09T22:29:16.608Z,10.00
2022-10-09T22:31:44.423Z,10.10
2022-10-09T22:34:12.005Z,10.10
2022-10-09T22:36:39.565Z,10.00
2022-10-09T22:39:07.963Z,10.10
2022-10-09T22:41:36.237Z,10.00
2022-10-09T22:44:10.545Z,10.00
2022-10-09T22:46:40.080Z,10.00
2022-10-09T22:49:08.671Z,10.00
2022-10-09T22:51:36.396Z,10.00
2022-10-09T22:54:04.685Z,10.00
2022-10-09T22:56:36.811Z,9.90
2022-10-09T22:59:06.700Z,9.90
2022-10-09T23:01:45.157Z,9.80
2022-10-09T23:04:14.101Z,9.70
2022-10-09T23:06:42.318Z,9.70
2022-10-09T23:09:11.085Z,9.60
2022-10-09T23:11:38.661Z,9.50
2022-10-09T23:14:08.116Z,9.50
2022-10-09T23:16:36.089Z,9.40
2022-10-09T23:19:06.784Z,9.50
2022-10-09T23:21:35.846Z,9.50
2022-10-09T23:24:05.404Z,9.60
2022-10-09T23:26:33.684Z,9.60
2022-10-09T23:29:02.942Z,9.60
2022-10-09T23:31:31.519Z,9.70
2022-10-09T23:33:59.714Z,9.60
2022-10-09T23:36:28.530Z,9.70
2022-10-09T23:38:57.434Z,9.60
2022-10-09T23:41:26.676Z,9.70
2022-10-09T23:43:54.300Z,9.70
2022-10-09T23:46:23.694Z,9.70
2022-10-09T23:48:52.116Z,9.70
2022-10-09T23:51:20.667Z,9.70
2022-10-09T23:53:48.616Z,9.70
2022-10-09T23:56:18.327Z,9.60
2022-10-09T23:58:46.542Z,9.60
